createdAt,value
2022-12-14T00:01:25.120Z,84.82
2022-12-14T00:03:52.386Z,75.88
2022-12-14T00:06:24.399Z,77.88
2022-12-14T00:08:52.816Z,87.63
2022-12-14T00:11:19.984Z,83.10
2022-12-14T00:13:48.975Z,80.40
2022-12-14T00:16:18.292Z,78.22
2022-12-14T00:18:49.952Z,78.15
2022-12-14T00:21:16.621Z,82.22
2022-12-14T00:23:44.899Z,78.82
2022-12-14T00:26:14.939Z,77.95
2022-12-14T00:28:42.696Z,80.93
2022-12-14T00:31:10.048Z,76.78
2022-12-14T00:33:37.632Z,80.43
2022-12-14T00:36:05.851Z,84.28
2022-12-14T00:38:32.665Z,77.13
2022-12-14T00:40:59.413Z,81.90
2022-12-14T00:43:26.279Z,86.28
2022-12-14T00:45:53.455Z,89.35
2022-12-14T00:48:21.636Z,94.35
2022-12-14T00:50:49.751Z,79.97
2022-12-14T00:53:17.127Z,79.18
2022-12-14T00:55:49.204Z,90.35
2022-12-14T00:58:19.721Z,91.63
2022-12-14T01:00:48.509Z,82.97
2022-12-14T01:03:15.867Z,80.18
2022-12-14T01:05:45.282Z,80.03
2022-12-14T01:08:16.195Z,79.28
2022-12-14T01:10:43.170Z,77.80
2022-12-14T01:13:11.635Z,75.97
2022-12-14T01:15:38.561Z,80.30
2022-12-14T01:18:05.537Z,61.63
2022-12-14T01:20:32.262Z,81.07
2022-12-14T01:23:02.128Z,87.55
2022-12-14T01:25:31.549Z,68.15
2022-12-14T01:27:58.132Z,81.47
2022-12-14T01:30:25.123Z,81.75
2022-12-14T01:32:51.712Z,81.22
2022-12-14T01:35:18.275Z,87.07
2022-12-14T01:37:44.895Z,71.35
2022-12-14T01:40:15.650Z,76.15
2022-12-14T01:42:42.214Z,87.45
2022-12-14T01:45:18.724Z,62.53
2022-12-14T01:47:53.804Z,45.67
2022-12-14T01:50:34.942Z,55.58
2022-12-14T01:53:28.563Z,54.40
2022-12-14T01:55:56.680Z,83.40
2022-12-14T01:58:26.780Z,80.65
2022-12-14T02:00:56.930Z,81.82
2022-12-14T02:03:31.430Z,87.28
2022-12-14T02:06:06.154Z,90.05
2022-12-14T02:08:33.368Z,76.60
2022-12-14T02:11:02.574Z,83.30
2022-12-14T02:13:32.628Z,60.15
2022-12-14T02:15:59.677Z,47.88
2022-12-14T02:18:29.814Z,22.25
2022-12-14T02:21:06.239Z,53.40
2022-12-14T02:24:07.918Z,52.40
2022-12-14T02:27:10.842Z,88.97
2022-12-14T02:29:45.622Z,71.45
2022-12-14T02:32:52.272Z,80.43
2022-12-14T02:35:31.795Z,76.68
2022-12-14T02:38:17.917Z,68.90
2022-12-14T02:41:02.857Z,57.20
2022-12-14T02:43:49.377Z,55.22
2022-12-14T02:46:25.236Z,78.68
2022-12-14T02:51:54.915Z,75.40
2022-12-14T02:54:30.065Z,70.00
2022-12-14T02:57:08.600Z,77.22
2022-12-14T02:59:36.094Z,75.22
2022-12-14T03:02:04.833Z,74.50
2022-12-14T03:04:31.723Z,96.18
2022-12-14T03:07:22.695Z,69.70
2022-12-14T03:09:49.393Z,88.53
2022-12-14T03:12:18.034Z,64.05
2022-12-14T03:14:50.777Z,29.33
2022-12-14T03:17:21.289Z,42.03
2022-12-14T03:20:01.060Z,30.63
2022-12-14T03:22:33.805Z,34.33
2022-12-14T03:25:13.016Z,72.55
2022-12-14T03:27:46.513Z,62.60
2022-12-14T03:30:23.725Z,71.93
2022-12-14T03:33:09.301Z,74.63
2022-12-14T03:35:45.936Z,84.15
2022-12-14T03:38:22.930Z,82.07
2022-12-14T03:40:52.404Z,74.00
2022-12-14T03:43:31.876Z,74.82
2022-12-14T03:46:30.922Z,82.80
2022-12-14T03:49:10.305Z,80.97
2022-12-14T03:52:01.390Z,93.63
2022-12-14T03:54:45.383Z,77.57
2022-12-14T03:57:27.925Z,78.25
2022-12-14T04:00:18.073Z,65.75
2022-12-14T04:03:09.976Z,83.70
2022-12-14T04:05:48.887Z,80.55
2022-12-14T04:08:36.291Z,69.13
2022-12-14T04:11:26.049Z,85.40
2022-12-14T04:14:37.075Z,84.95
2022-12-14T04:17:31.318Z,66.90
2022-12-14T04:20:10.387Z,68.22
2022-12-14T04:22:47.978Z,50.38
2022-12-14T04:25:42.302Z,75.47
2022-12-14T04:28:53.106Z,76.65
2022-12-14T04:31:24.202Z,64.82
2022-12-14T04:33:54.992Z,58.13
2022-12-14T04:36:29.963Z,76.72
2022-12-14T04:39:08.883Z,85.47
2022-12-14T04:41:38.633Z,88.30
2022-12-14T04:44:13.626Z,77.55
2022-12-14T04:46:42.341Z,44.53
2022-12-14T04:49:31.951Z,81.72
2022-12-14T04:52:24.575Z,32.42
2022-12-14T04:55:08.879Z,79.30
2022-12-14T04:57:47.380Z,63.20
2022-12-14T05:00:14.791Z,74.85
2022-12-14T05:03:11.318Z,56.03
2022-12-14T05:05:50.731Z,48.17
2022-12-14T05:08:42.810Z,98.47
2022-12-14T05:11:41.326Z,30.30
2022-12-14T05:14:01.066Z,51.75
2022-12-14T05:16:27.783Z,45.45
2022-12-14T05:18:54.425Z,19.73
2022-12-14T05:21:39.510Z,32.33
2022-12-14T05:24:07.294Z,16.95
2022-12-14T05:26:34.301Z,43.63
2022-12-14T05:29:00.880Z,42.38
2022-12-14T05:31:27.468Z,40.70
2022-12-14T05:33:54.035Z,35.05
2022-12-14T05:36:20.663Z,41.55
2022-12-14T05:38:47.628Z,37.85
2022-12-14T05:41:15.074Z,78.75
2022-12-14T05:43:41.897Z,57.05
2022-12-14T05:46:11.676Z,71.75
2022-12-14T05:48:38.309Z,56.33
2022-12-14T05:51:10.154Z,60.20
2022-12-14T05:53:37.831Z,73.57
2022-12-14T05:56:06.217Z,66.38
2022-12-14T05:58:34.629Z,103.53
2022-12-14T06:01:04.087Z,77.70
2022-12-14T06:03:31.249Z,100.47
2022-12-14T06:06:05.557Z,112.82
2022-12-14T06:08:37.583Z,96.15
2022-12-14T06:11:08.956Z,92.32
2022-12-14T06:13:36.811Z,84.88
2022-12-14T06:16:17.820Z,93.50
2022-12-14T06:18:50.364Z,16.30
2022-12-14T06:21:19.296Z,79.07
2022-12-14T06:23:46.426Z,58.22
2022-12-14T06:26:14.242Z,96.22
2022-12-14T06:28:41.015Z,58.47
2022-12-14T06:31:08.400Z,36.38
2022-12-14T06:33:35.925Z,66.43
2022-12-14T06:36:03.152Z,59.25
2022-12-14T06:38:30.038Z,27.25
2022-12-14T06:40:56.666Z,34.28
2022-12-14T06:43:30.001Z,20.42
2022-12-14T06:45:57.291Z,67.78
2022-12-14T06:48:23.936Z,39.78
2022-12-14T06:50:51.734Z,67.43
2022-12-14T06:53:18.419Z,78.57
2022-12-14T06:55:45.028Z,54.47
2022-12-14T06:58:15.916Z,58.03
2022-12-14T07:00:42.569Z,12.95
2022-12-14T07:03:10.212Z,55.55
2022-12-14T07:05:37.168Z,71.85
2022-12-14T07:08:05.283Z,38.38
2022-12-14T07:10:31.953Z,60.63
2022-12-14T07:12:58.558Z,104.22
2022-12-14T07:15:25.160Z,90.28
2022-12-14T07:17:51.803Z,83.05
2022-12-14T07:20:18.726Z,90.50
2022-12-14T07:22:49.252Z,93.30
2022-12-14T07:25:16.126Z,94.72
2022-12-14T07:27:42.692Z,96.97
2022-12-14T07:30:09.928Z,85.22
2022-12-14T07:32:36.526Z,93.28
2022-12-14T07:35:03.173Z,91.07
2022-12-14T07:37:29.816Z,95.55
2022-12-14T07:39:56.412Z,93.70
2022-12-14T07:42:23.014Z,100.38
2022-12-14T07:44:49.638Z,81.47
2022-12-14T07:47:16.842Z,101.63
2022-12-14T07:49:44.057Z,103.80
2022-12-14T07:52:11.392Z,104.88
2022-12-14T07:54:38.026Z,109.20
2022-12-14T07:57:04.696Z,101.82
2022-12-14T07:59:34.475Z,99.18
2022-12-14T08:02:01.271Z,99.72
2022-12-14T08:04:28.047Z,96.18
2022-12-14T08:06:59.109Z,89.00
2022-12-14T08:09:25.760Z,91.35
2022-12-14T08:11:52.351Z,76.78
2022-12-14T08:14:19.789Z,84.15
2022-12-14T08:16:49.580Z,78.95
2022-12-14T08:19:17.891Z,88.57
2022-12-14T08:21:45.989Z,84.30
2022-12-14T08:24:13.663Z,79.78
2022-12-14T08:26:40.325Z,70.30
2022-12-14T08:29:07.009Z,87.35
2022-12-14T08:31:34.011Z,68.30
2022-12-14T08:34:01.986Z,50.65
2022-12-14T08:36:30.883Z,74.13
2022-12-14T08:39:03.440Z,82.57
2022-12-14T08:41:30.341Z,65.30
2022-12-14T08:43:59.311Z,73.28
2022-12-14T08:46:28.196Z,73.78
2022-12-14T08:48:55.878Z,65.90
2022-12-14T08:51:23.948Z,80.43
2022-12-14T08:53:51.508Z,75.20
2022-12-14T08:56:21.534Z,65.72
2022-12-14T08:58:48.871Z,68.05
2022-12-14T09:01:30.323Z,57.97
2022-12-14T09:04:08.967Z,81.15
2022-12-14T09:06:38.885Z,75.68
2022-12-14T09:09:13.314Z,75.55
2022-12-14T09:11:42.009Z,56.00
2022-12-14T09:14:10.867Z,70.75
2022-12-14T09:16:40.395Z,76.13
2022-12-14T09:19:07.234Z,73.72
2022-12-14T09:21:34.174Z,83.72
2022-12-14T09:24:01.489Z,52.45
2022-12-14T09:26:28.585Z,85.15
2022-12-14T09:28:57.216Z,75.72
2022-12-14T09:31:25.707Z,73.93
2022-12-14T09:33:52.752Z,66.22
2022-12-14T09:36:22.072Z,78.63
2022-12-14T09:38:55.308Z,60.33
2022-12-14T09:41:34.757Z,74.13
2022-12-14T09:44:25.034Z,71.10
2022-12-14T09:47:17.204Z,73.07
2022-12-14T09:49:54.405Z,82.53
2022-12-14T09:52:26.562Z,62.08
2022-12-14T09:54:55.433Z,69.18
2022-12-14T09:57:34.405Z,55.85
2022-12-14T10:00:01.220Z,76.75
2022-12-14T10:03:04.523Z,58.22
2022-12-14T10:05:57.191Z,52.08
2022-12-14T10:08:26.974Z,82.43
2022-12-14T10:11:07.444Z,72.05
2022-12-14T10:14:09.767Z,62.83
2022-12-14T10:16:49.950Z,76.28
2022-12-14T10:19:35.205Z,82.90
2022-12-14T10:22:12.446Z,71.35
2022-12-14T10:25:10.522Z,83.57
2022-12-14T10:28:09.155Z,70.47
2022-12-14T10:30:25.260Z,69.70
2022-12-14T10:32:57.273Z,78.70
2022-12-14T10:35:43.478Z,76.95
2022-12-14T10:38:45.013Z,79.95
2022-12-14T10:41:27.998Z,54.00
2022-12-14T10:43:59.169Z,69.32
2022-12-14T10:46:51.661Z,56.10
2022-12-14T10:49:50.524Z,57.17
2022-12-14T10:52:23.599Z,68.53
2022-12-14T10:54:54.421Z,63.85
2022-12-14T10:57:26.430Z,52.92
2022-12-14T11:00:07.793Z,62.28
2022-12-14T11:02:41.717Z,41.38
2022-12-14T11:05:41.571Z,64.53
2022-12-14T11:08:09.064Z,57.35
2022-12-14T11:10:39.738Z,32.17
2022-12-14T11:13:16.700Z,58.20
2022-12-14T11:15:48.704Z,68.82
2022-12-14T11:18:15.511Z,48.67
2022-12-14T11:21:02.426Z,56.92
2022-12-14T11:23:40.661Z,54.55
2022-12-14T11:26:13.487Z,54.10
2022-12-14T11:28:49.889Z,68.63
2022-12-14T11:31:40.192Z,57.30
2022-12-14T11:34:22.287Z,62.92
2022-12-14T11:36:50.207Z,54.50
2022-12-14T11:39:22.802Z,31.65
2022-12-14T11:41:52.369Z,55.30
2022-12-14T11:44:18.944Z,59.75
2022-12-14T11:46:58.004Z,43.67
2022-12-14T11:49:35.137Z,38.72
2022-12-14T11:52:04.722Z,52.22
2022-12-14T11:54:50.181Z,42.90
2022-12-14T11:57:57.572Z,49.15
2022-12-14T12:00:30.875Z,42.97
2022-12-14T12:03:23.718Z,49.08
2022-12-14T12:05:52.560Z,45.90
2022-12-14T12:08:24.686Z,44.25
2022-12-14T12:10:54.401Z,51.15
2022-12-14T12:13:28.503Z,57.10
2022-12-14T12:15:59.340Z,72.78
2022-12-14T12:18:47.073Z,66.30
2022-12-14T12:21:26.446Z,70.85
2022-12-14T12:24:15.680Z,62.75
2022-12-14T12:26:54.813Z,74.20
2022-12-14T12:29:48.967Z,62.17
2022-12-14T12:32:37.873Z,74.85
2022-12-14T12:35:18.912Z,63.58
2022-12-14T12:37:57.392Z,61.40
2022-12-14T12:41:00.718Z,52.67
2022-12-14T12:43:50.179Z,55.60
2022-12-14T12:47:14.975Z,61.92
2022-12-14T12:49:32.807Z,55.88
2022-12-14T12:52:06.586Z,50.13
2022-12-14T12:54:40.206Z,40.83
2022-12-14T12:57:11.968Z,44.35
2022-12-14T12:59:45.456Z,56.10
2022-12-14T13:02:30.639Z,46.20
2022-12-14T13:05:16.682Z,31.67
2022-12-14T13:07:53.069Z,38.78
2022-12-14T13:10:25.420Z,25.30
2022-12-14T13:13:18.417Z,42.22
2022-12-14T13:15:50.539Z,38.63
2022-12-14T13:18:59.180Z,46.17
2022-12-14T13:21:36.622Z,42.03
2022-12-14T13:24:06.290Z,43.80
2022-12-14T13:30:13.649Z,47.38
2022-12-14T13:32:40.210Z,42.05
2022-12-14T13:35:30.059Z,46.60
2022-12-14T13:38:00.723Z,41.03
2022-12-14T13:40:50.271Z,37.35
2022-12-14T13:43:35.675Z,48.53
2022-12-14T13:46:11.776Z,35.92
2022-12-14T13:51:09.107Z,30.67
2022-12-14T13:53:42.028Z,47.35
2022-12-14T13:56:09.981Z,39.47
2022-12-14T13:58:42.248Z,38.60
2022-12-14T14:01:15.699Z,33.95
2022-12-14T14:03:44.094Z,41.78
2022-12-14T14:06:29.356Z,30.77
2022-12-14T14:08:55.994Z,29.23
2022-12-14T14:11:36.904Z,36.92
2022-12-14T14:14:04.674Z,49.58
2022-12-14T14:16:42.838Z,39.17
2022-12-14T14:19:09.480Z,41.58
2022-12-14T14:22:22.169Z,43.72
2022-12-14T14:24:58.513Z,47.83
2022-12-14T14:27:32.765Z,39.85
2022-12-14T14:29:59.510Z,47.72
2022-12-14T14:32:33.273Z,43.22
2022-12-14T14:35:06.619Z,47.17
2022-12-14T14:37:38.915Z,47.10
2022-12-14T14:40:38.282Z,50.30
2022-12-14T14:43:32.530Z,46.90
2022-12-14T14:46:05.885Z,47.60
2022-12-14T14:48:53.163Z,40.72
2022-12-14T14:51:25.570Z,21.40
2022-12-14T14:54:46.149Z,44.22
2022-12-14T14:57:56.110Z,41.40
2022-12-14T15:02:54.621Z,48.05
2022-12-14T15:05:41.998Z,46.03
2022-12-14T15:08:19.130Z,40.08
2022-12-14T15:10:46.996Z,44.20
2022-12-14T15:13:24.489Z,42.92
2022-12-14T15:15:53.619Z,42.03
2022-12-14T15:18:30.705Z,48.10
2022-12-14T15:21:04.294Z,39.25
2022-12-14T15:23:43.252Z,48.72
2022-12-14T15:26:34.184Z,49.15
2022-12-14T15:29:02.456Z,45.05
2022-12-14T15:31:41.997Z,40.45
2022-12-14T15:34:16.506Z,52.63
2022-12-14T15:36:44.298Z,51.53
2022-12-14T15:39:40.808Z,47.58
2022-12-14T15:42:15.291Z,39.22
2022-12-14T15:44:55.153Z,49.03
2022-12-14T15:47:32.015Z,47.33
2022-12-14T15:50:15.743Z,43.78
2022-12-14T15:52:45.664Z,41.53
2022-12-14T15:55:31.382Z,42.22
2022-12-14T15:58:10.742Z,49.33
2022-12-14T16:00:42.782Z,48.30
2022-12-14T16:03:40.304Z,49.50
2022-12-14T16:06:09.408Z,52.63
2022-12-14T16:08:38.654Z,48.58
2022-12-14T16:11:15.425Z,42.20
2022-12-14T16:13:46.246Z,46.55
2022-12-14T16:16:14.483Z,42.22
2022-12-14T16:18:50.897Z,57.47
2022-12-14T16:21:32.220Z,41.22
2022-12-14T16:24:02.386Z,32.42
2022-12-14T16:26:33.534Z,43.45
2022-12-14T16:29:22.850Z,50.33
2022-12-14T16:31:49.988Z,42.83
2022-12-14T16:34:23.604Z,48.90
2022-12-14T16:37:14.627Z,44.90
2022-12-14T16:39:40.116Z,44.75
2022-12-14T16:42:18.498Z,44.00
2022-12-14T16:44:47.780Z,43.05
2022-12-14T16:47:17.271Z,47.40
2022-12-14T16:49:50.441Z,39.75
2022-12-14T16:52:21.363Z,45.88
2022-12-14T16:55:10.786Z,47.75
2022-12-14T16:57:41.512Z,41.70
2022-12-14T17:00:19.207Z,49.10
2022-12-14T17:03:03.841Z,42.53
2022-12-14T17:05:39.675Z,40.75
2022-12-14T17:08:07.893Z,53.67
2022-12-14T17:10:34.849Z,52.63
2022-12-14T17:13:03.021Z,33.40
2022-12-14T17:15:32.820Z,52.10
2022-12-14T17:18:02.133Z,38.60
2022-12-14T17:20:31.216Z,47.28
2022-12-14T17:23:01.938Z,46.08
2022-12-14T17:25:31.573Z,55.65
2022-12-14T17:28:00.278Z,51.53
2022-12-14T17:30:26.988Z,55.15
2022-12-14T17:32:55.051Z,52.17
2022-12-14T17:35:29.815Z,53.92
2022-12-14T17:37:56.944Z,45.05
2022-12-14T17:40:24.762Z,47.40
2022-12-14T17:42:53.542Z,47.92
2022-12-14T17:45:26.580Z,39.95
2022-12-14T17:47:54.552Z,36.65
2022-12-14T17:50:21.886Z,36.85
2022-12-14T17:52:50.531Z,42.08
2022-12-14T17:55:18.429Z,32.33
2022-12-14T17:57:45.732Z,45.33
2022-12-14T18:00:36.890Z,53.08
2022-12-14T18:03:07.708Z,43.20
2022-12-14T18:05:34.493Z,48.72
2022-12-14T18:08:01.094Z,37.33
2022-12-14T18:10:28.255Z,38.08
2022-12-14T18:12:55.647Z,46.97
2022-12-14T18:15:27.953Z,45.55
2022-12-14T18:17:55.252Z,59.40
2022-12-14T18:20:24.100Z,45.40
2022-12-14T18:22:51.309Z,18.10
2022-12-14T18:25:35.987Z,35.30
2022-12-14T18:28:04.868Z,31.40
2022-12-14T18:30:39.513Z,46.42
2022-12-14T18:33:15.897Z,34.28
2022-12-14T18:35:44.163Z,48.28
2022-12-14T18:38:10.954Z,38.63
2022-12-14T18:40:38.486Z,50.67
2022-12-14T18:43:05.150Z,59.40
2022-12-14T18:45:34.738Z,35.78
2022-12-14T18:48:01.730Z,53.90
2022-12-14T18:50:29.051Z,47.25
2022-12-14T18:52:56.053Z,34.75
2022-12-14T18:55:31.963Z,44.97
2022-12-14T18:58:02.071Z,56.10
2022-12-14T19:00:33.748Z,56.28
2022-12-14T19:03:02.483Z,59.45
2022-12-14T19:05:30.666Z,51.70
2022-12-14T19:07:58.872Z,21.50
2022-12-14T19:10:28.984Z,59.03
2022-12-14T19:12:56.512Z,40.53
2022-12-14T19:15:28.735Z,55.22
2022-12-14T19:17:56.120Z,66.93
2022-12-14T19:20:23.756Z,53.80
2022-12-14T19:22:51.026Z,48.03
2022-12-14T19:25:22.162Z,56.67
2022-12-14T19:30:37.117Z,55.72
2022-12-14T19:33:04.058Z,58.20
2022-12-14T19:35:31.929Z,59.15
2022-12-14T19:37:58.671Z,77.45
2022-12-14T19:40:26.313Z,64.50
2022-12-14T19:42:52.994Z,73.30
2022-12-14T19:45:19.747Z,58.17
2022-12-14T19:47:46.509Z,75.72
2022-12-14T19:50:14.885Z,73.93
2022-12-14T19:52:42.080Z,70.88
2022-12-14T19:55:10.467Z,47.15
2022-12-14T19:57:38.699Z,72.90
2022-12-14T20:00:07.590Z,69.45
2022-12-14T20:02:34.385Z,70.22
2022-12-14T20:05:01.213Z,72.03
2022-12-14T20:07:27.844Z,68.85
2022-12-14T20:09:54.530Z,63.22
2022-12-14T20:12:21.108Z,60.65
2022-12-14T20:14:49.430Z,79.75
2022-12-14T20:17:16.692Z,74.05
2022-12-14T20:19:43.554Z,74.97
2022-12-14T20:22:10.264Z,86.10
2022-12-14T20:24:37.189Z,85.72
2022-12-14T20:27:04.079Z,75.05
2022-12-14T20:29:30.831Z,75.53
2022-12-14T20:31:57.950Z,79.43
2022-12-14T20:34:24.699Z,86.93
2022-12-14T20:36:51.280Z,81.05
2022-12-14T20:39:17.956Z,83.40
2022-12-14T20:41:44.520Z,63.08
2022-12-14T20:44:12.135Z,80.22
2022-12-14T20:46:42.977Z,80.15
2022-12-14T20:49:12.817Z,87.15
2022-12-14T20:51:39.980Z,75.72
2022-12-14T20:54:09.030Z,81.78
2022-12-14T20:56:36.667Z,72.97
2022-12-14T20:59:03.882Z,76.40
2022-12-14T21:01:30.781Z,83.18
2022-12-14T21:04:00.784Z,89.68
2022-12-14T21:06:27.583Z,82.28
2022-12-14T21:09:09.416Z,80.95
2022-12-14T21:12:00.552Z,74.15
2022-12-14T21:14:32.452Z,68.80
2022-12-14T21:17:00.190Z,80.75
2022-12-14T21:19:27.808Z,79.55
2022-12-14T21:21:54.517Z,84.78
2022-12-14T21:25:00.980Z,92.90
2022-12-14T21:27:15.021Z,85.70
2022-12-14T21:29:41.752Z,87.13
2022-12-14T21:32:08.828Z,78.00
2022-12-14T21:34:36.584Z,60.35
2022-12-14T21:37:03.222Z,79.22
2022-12-14T21:39:29.914Z,80.63
2022-12-14T21:42:15.611Z,83.43
2022-12-14T21:44:44.696Z,75.93
2022-12-14T21:47:15.656Z,78.55
2022-12-14T21:49:44.304Z,93.13
2022-12-14T21:52:16.829Z,87.72
2022-12-14T21:54:43.743Z,85.13
2022-12-14T21:57:35.092Z,82.80
2022-12-14T22:00:01.760Z,86.93
2022-12-14T22:02:29.539Z,81.47
2022-12-14T22:04:56.498Z,91.40
2022-12-14T22:07:30.810Z,95.75
2022-12-14T22:09:57.597Z,90.80
2022-12-14T22:12:24.430Z,85.78
2022-12-14T22:14:51.809Z,91.05
2022-12-14T22:17:18.393Z,80.47
2022-12-14T22:19:44.975Z,93.70
2022-12-14T22:22:15.733Z,88.20
2022-12-14T22:24:43.014Z,84.10
2022-12-14T22:27:12.987Z,86.57
2022-12-14T22:29:39.934Z,88.50
2022-12-14T22:32:07.363Z,86.80
2022-12-14T22:34:34.466Z,86.50
2022-12-14T22:37:01.309Z,83.82
2022-12-14T22:39:27.952Z,84.18
2022-12-14T22:41:54.575Z,79.95
2022-12-14T22:44:21.184Z,78.38
2022-12-14T22:46:47.898Z,87.75
2022-12-14T22:49:19.210Z,92.70
2022-12-14T22:51:46.449Z,89.43
2022-12-14T22:54:21.014Z,87.18
2022-12-14T22:56:52.921Z,90.05
2022-12-14T22:59:25.235Z,80.68
2022-12-14T23:01:52.091Z,85.28
2022-12-14T23:04:21.148Z,79.20
2022-12-14T23:06:47.989Z,88.88
2022-12-14T23:09:33.242Z,83.47
2022-12-14T23:12:21.903Z,74.35
2022-12-14T23:15:07.858Z,86.82
2022-12-14T23:17:53.813Z,78.35
2022-12-14T23:20:39.086Z,87.55
2022-12-14T23:23:25.678Z,81.43
2022-12-14T23:28:56.849Z,81.65
2022-12-14T23:31:41.695Z,76.55
2022-12-14T23:34:27.449Z,90.82
2022-12-14T23:37:19.770Z,85.20
2022-12-14T23:40:05.590Z,86.75
2022-12-14T23:42:50.642Z,87.80
2022-12-14T23:45:35.909Z,83.43
2022-12-14T23:48:21.350Z,93.18
2022-12-14T23:51:08.690Z,84.55
2022-12-14T23:53:53.563Z,95.05
2022-12-14T23:56:38.798Z,89.88
2022-12-14T23:59:27.985Z,94.18
